.
WxDataArchive / Data Records for 2009-04-24
2009-04-23 April 2009 2009-04-25

Data Records for Friday, 24 April 2009

Time	Temp	Chill	HIndex	Humid	Dewpt	 Wind 	HiWind	WindDir	Rain 	Barom 
-----	----	-----	------	-----	-----	------	------	-------	-----	----- 
00:00	55.4	55.4	55.4	48	36.0	0	2	135	0.00	30.021 
00:05	55.4	55.4	55.4	48	36.0	0	2	135	0.00	30.021 
00:10	55.3	55.3	55.3	49	36.5	1	3	135	0.00	30.021 
00:15	55.3	55.3	55.3	49	36.5	1	3	135	0.00	30.013 
00:20	55.1	55.1	55.1	49	36.3	0	2	112	0.00	30.013 
00:25	55.0	55.0	55.0	50	36.7	0	1	112	0.00	30.013 
00:30	54.8	54.8	54.8	50	36.5	0	2	112	0.00	30.009 
00:35	54.8	54.8	54.8	50	36.5	0	3	112	0.00	30.009 
00:40	54.7	54.7	54.7	51	36.9	0	2	112	0.00	30.009 
00:45	54.7	54.7	54.7	51	36.9	0	2	112	0.00	29.999 
00:50	54.7	54.7	54.7	51	36.9	0	2	135	0.00	29.999 
00:55	54.7	54.7	54.7	51	36.9	1	3	135	0.00	29.999 
01:00	54.8	54.8	54.8	52	37.5	0	2	135	0.00	29.995 
01:05	54.8	54.8	54.8	52	37.5	1	3	112	0.00	29.995 
01:10	55.0	55.0	55.0	52	37.7	1	3	135	0.00	29.995 
01:15	54.8	54.8	54.8	52	37.5	1	4	90	0.00	29.988 
01:20	54.8	54.8	54.8	52	37.5	1	3	90	0.00	29.988 
01:25	54.8	54.8	54.8	53	38.0	1	3	112	0.00	29.988 
01:30	54.7	54.7	54.7	53	37.9	0	1	112	0.00	29.981 
01:35	54.5	54.5	54.5	54	38.2	0	2	112	0.00	29.981 
01:40	54.4	54.4	54.4	54	38.1	1	4	112	0.00	29.981 
01:45	54.4	54.4	54.4	54	38.1	1	2	90	0.00	29.970 
01:50	54.4	54.4	54.4	54	38.1	1	5	112	0.00	29.970 
01:55	54.5	54.5	54.5	54	38.2	1	3	112	0.00	29.970 
02:00	54.7	54.7	54.7	54	38.4	1	3	135	0.00	29.954 
02:05	54.7	54.7	54.7	54	38.4	1	3	90	0.00	29.954 
02:10	55.0	55.0	55.0	54	38.7	1	3	135	0.00	29.954 
02:15	55.1	55.1	55.1	53	38.3	2	5	112	0.00	29.944 
02:20	55.3	55.3	55.3	53	38.5	1	3	90	0.00	29.944 
02:25	55.6	55.6	55.6	52	38.3	2	6	90	0.00	29.944 
02:30	55.7	55.7	55.7	51	37.9	2	5	90	0.00	29.934 
02:35	55.9	55.9	55.9	52	38.5	1	5	112	0.00	29.934 
02:40	56.0	56.0	56.0	51	38.1	1	5	112	0.00	29.934 
02:45	56.2	56.2	56.2	51	38.3	2	4	112	0.00	29.928 
02:50	56.2	56.2	56.2	51	38.3	2	5	112	0.00	29.928 
02:55	56.5	56.5	56.5	50	38.1	2	5	135	0.00	29.928 
03:00	56.7	56.7	56.7	49	37.8	2	5	90	0.00	29.913 
03:05	57.0	57.0	57.0	49	38.0	1	4	112	0.00	29.913 
03:10	57.0	57.0	57.0	49	38.0	1	3	135	0.00	29.913 
03:15	57.0	57.0	57.0	50	38.5	2	4	112	0.00	29.904 
03:20	57.0	57.0	57.0	50	38.5	1	3	90	0.00	29.904 
03:25	57.0	57.0	57.0	50	38.5	2	5	90	0.00	29.904 
03:30	57.2	57.2	57.2	49	38.2	2	6	112	0.00	29.897 
03:35	57.5	57.5	57.5	49	38.5	2	4	112	0.00	29.897 
03:40	57.8	57.8	57.8	48	38.2	2	6	90	0.00	29.897 
03:45	58.1	58.1	58.1	48	38.5	2	6	112	0.00	29.891 
03:50	58.3	58.3	58.3	48	38.7	2	6	90	0.00	29.891 
03:55	58.3	58.3	58.3	48	38.7	2	5	112	0.00	29.891 
04:00	58.3	58.3	58.3	49	39.2	2	5	112	0.00	29.890 
04:05	58.3	58.3	58.3	49	39.2	2	5	112	0.00	29.890 
04:10	58.3	58.3	58.3	50	39.7	2	6	112	0.00	29.890 
04:15	58.1	58.1	58.1	50	39.6	1	3	90	0.00	29.882 
04:20	58.3	58.3	58.3	51	40.3	1	5	112	0.00	29.882 
04:25	58.4	58.4	58.4	51	40.3	1	5	135	0.00	29.882 
04:30	58.6	58.6	58.6	51	40.5	1	4	135	0.00	29.880 
04:35	58.9	58.9	58.9	51	40.8	2	7	112	0.00	29.880 
04:40	59.2	59.2	59.2	51	41.1	3	7	112	0.00	29.880 
04:45	59.5	59.5	59.5	51	41.4	3	6	68	0.00	29.876 
04:50	59.5	59.5	59.5	51	41.4	2	6	112	0.00	29.876 
04:55	59.5	59.5	59.5	52	41.9	2	6	90	0.00	29.876 
05:00	59.5	59.5	59.5	52	41.9	2	4	270	0.00	29.876 
05:05	59.5	59.5	59.5	53	42.4	1	5	112	0.00	29.876 
05:10	59.3	59.3	59.3	53	42.2	1	4	68	0.00	29.876 
05:15	59.3	59.3	59.3	54	42.7	1	4	248	0.00	29.878 
05:20	59.3	59.3	59.3	54	42.7	1	6	248	0.00	29.878 
05:25	59.6	59.6	59.6	54	42.9	2	7	22	0.00	29.878 
05:30	59.8	59.8	59.8	54	43.1	2	6	270	0.00	29.877 
05:35	59.9	59.9	59.9	54	43.2	2	6	270	0.00	29.877 
05:40	59.8	59.8	59.8	55	43.6	1	7	292	0.00	29.877 
05:45	59.6	59.6	59.6	55	43.4	1	7	248	0.00	29.875 
05:50	59.5	59.5	59.5	56	43.8	1	5	135	0.00	29.875 
05:55	59.3	59.3	59.3	56	43.6	2	5	248	0.00	29.875 
06:00	59.2	59.2	59.2	57	44.0	1	4	45	0.00	29.879 
06:05	59.0	59.0	59.0	58	44.2	1	6	248	0.00	29.879 
06:10	59.0	59.0	59.0	59	44.7	1	4	22	0.00	29.879 
06:15	58.9	58.9	58.9	59	44.6	1	3	270	0.00	29.878 
06:20	58.9	58.9	58.9	60	45.0	1	4	270	0.00	29.878 
06:25	58.9	58.9	58.9	61	45.5	1	4	315	0.00	29.878 
06:30	58.9	58.9	58.9	61	45.5	1	2	338	0.00	29.878 
06:35	58.9	58.9	58.9	62	45.9	1	4	338	0.00	29.878 
06:40	58.9	58.9	58.9	62	45.9	2	5	248	0.00	29.878 
06:45	58.9	58.9	58.9	62	45.9	1	5	292	0.00	29.878 
06:50	58.9	58.9	58.9	63	46.3	1	3	270	0.00	29.878 
06:55	58.9	58.9	58.9	63	46.3	1	6	45	0.00	29.878 
07:00	58.9	58.9	58.9	64	46.7	1	5	315	0.00	29.878 
07:05	58.9	58.9	58.9	65	47.2	1	4	292	0.00	29.878 
07:10	58.9	58.9	58.9	65	47.2	1	4	338	0.00	29.878 
07:15	59.0	59.0	59.0	65	47.2	1	3	315	0.00	29.881 
07:20	59.0	59.0	59.0	66	47.7	1	3	292	0.00	29.881 
07:25	59.2	59.2	59.2	66	47.8	1	3	338	0.00	29.881 
07:30	59.3	59.3	59.3	66	47.9	1	4	45	0.00	29.885 
07:35	59.8	59.8	59.8	66	48.4	1	5	248	0.00	29.885 
07:40	60.1	60.1	60.1	66	48.7	1	6	292	0.00	29.885 
07:45	60.5	60.5	60.5	65	48.7	2	5	292	0.00	29.887 
07:50	60.9	60.9	60.9	65	49.1	2	6	225	0.00	29.887 
07:55	61.2	61.2	61.2	65	49.3	2	6	248	0.00	29.887 
08:00	61.6	61.6	61.6	65	49.7	3	11	248	0.00	29.890 
08:05	62.0	62.0	62.0	64	49.7	2	7	248	0.00	29.890 
08:10	62.4	62.4	62.4	64	50.1	2	5	270	0.00	29.890 
08:15	62.9	62.9	62.9	63	50.1	2	7	248	0.00	29.900 
08:20	63.7	63.7	63.7	63	50.9	3	7	270	0.00	29.900 
08:25	64.3	64.3	64.3	61	50.6	4	9	270	0.00	29.900 
08:30	65.0	65.0	65.0	60	50.8	4	10	248	0.00	29.902 
08:35	65.6	65.6	65.6	60	51.3	3	10	270	0.00	29.902 
08:40	66.1	66.1	66.1	59	51.3	4	11	270	0.00	29.902 
08:45	66.6	66.6	66.6	58	51.4	4	11	248	0.00	29.904 
08:50	66.9	66.9	66.9	58	51.6	4	11	270	0.00	29.904 
08:55	67.3	67.3	67.3	58	52.0	4	11	270	0.00	29.904 
09:00	67.6	67.6	67.6	58	52.3	4	14	248	0.00	29.906 
09:05	67.8	67.8	67.8	57	52.0	5	14	248	0.00	29.906 
09:10	67.9	67.9	67.9	57	52.1	5	11	248	0.00	29.906 
09:15	68.3	68.3	68.3	57	52.5	5	12	270	0.00	29.905 
09:20	68.6	68.6	68.6	57	52.7	4	13	248	0.00	29.905 
09:25	68.9	68.9	68.9	56	52.5	5	12	248	0.00	29.905 
09:30	69.1	69.1	69.1	55	52.2	5	14	248	0.00	29.904 
09:35	69.4	69.4	69.4	55	52.5	5	13	270	0.00	29.904 
09:40	69.9	69.9	69.9	55	53.0	4	12	248	0.00	29.904 
09:45	70.4	70.4	70.4	54	52.9	4	9	270	0.00	29.906 
09:50	70.8	70.8	70.8	54	53.3	5	10	248	0.00	29.906 
09:55	71.3	71.3	71.3	53	53.3	6	15	270	0.00	29.906 
10:00	71.6	71.6	71.6	52	53.0	6	13	270	0.00	29.908 
10:05	72.0	72.0	72.0	51	52.9	7	12	270	0.00	29.908 
10:10	72.3	72.3	72.3	51	53.1	6	13	270	0.00	29.908 
10:15	72.5	72.5	72.5	51	53.3	5	15	270	0.00	29.913 
10:20	72.7	72.7	72.7	52	54.0	7	15	248	0.00	29.913 
10:25	73.0	73.0	73.0	50	53.2	5	14	270	0.00	29.913 
10:30	73.2	73.2	73.2	50	53.4	6	12	270	0.00	29.916 
10:35	73.5	73.5	73.5	50	53.7	5	11	270	0.00	29.916 
10:40	73.7	73.7	73.7	48	52.8	6	16	270	0.00	29.916 
10:45	73.7	73.7	73.7	49	53.3	6	16	270	0.00	29.917 
10:50	74.0	74.0	74.0	49	53.6	5	14	270	0.00	29.917 
10:55	74.4	74.4	74.4	48	53.4	5	15	248	0.00	29.917 
11:00	74.6	74.6	74.6	48	53.6	6	17	270	0.00	29.919 
11:05	74.7	74.7	74.7	47	53.1	6	16	270	0.00	29.919 
11:10	74.9	74.9	74.9	47	53.3	8	16	270	0.00	29.919 
11:15	75.3	75.3	77.7	48	54.2	4	9	270	0.00	29.922 
11:20	75.8	75.8	77.9	46	53.5	5	14	270	0.00	29.922 
11:25	76.3	76.3	78.1	45	53.4	5	13	270	0.00	29.922 
11:30	76.7	76.7	78.3	45	53.7	7	15	270	0.00	29.924 
11:35	77.2	77.2	78.5	43	52.9	5	12	270	0.00	29.924 
11:40	77.6	77.6	78.7	44	53.9	5	12	270	0.00	29.924 
11:45	78.1	78.1	78.9	43	53.8	4	11	248	0.00	29.927 
11:50	78.5	78.5	79.2	43	54.1	4	10	248	0.00	29.927 
11:55	78.6	78.6	79.2	42	53.6	4	14	248	0.00	29.927 
12:00	79.0	79.0	79.4	41	53.3	4	9	270	0.00	29.926 
12:05	79.2	79.2	79.4	40	52.8	4	12	248	0.00	29.926 
12:10	79.4	79.4	79.6	41	53.6	4	9	270	0.00	29.926 
12:15	79.6	79.6	79.7	40	53.1	4	12	248	0.00	29.929 
12:20	79.8	79.8	79.8	40	53.3	4	9	248	0.00	29.929 
12:25	79.9	79.9	79.9	40	53.4	4	11	248	0.00	29.929 
12:30	80.1	80.1	79.9	39	52.9	4	14	270	0.00	29.931 
12:35	80.3	80.3	80.1	39	53.1	4	10	270	0.00	29.931 
12:40	80.1	80.1	80.1	41	54.2	5	13	270	0.00	29.931 
12:45	80.1	80.1	80.3	43	55.6	4	12	270	0.00	29.934 
12:50	80.7	80.7	80.4	40	54.1	3	12	248	0.00	29.934 
12:55	80.7	80.7	80.4	40	54.1	5	12	248	0.00	29.934 
13:00	80.3	80.3	80.2	41	54.4	6	14	248	0.00	29.935 
13:05	80.7	80.7	80.5	41	54.8	5	12	270	0.00	29.935 
13:10	80.7	80.7	80.4	40	54.1	5	12	248	0.00	29.935 
13:15	81.2	81.2	80.9	41	55.2	3	10	248	0.00	29.943 
13:20	81.4	81.4	81.0	40	54.7	4	11	248	0.00	29.943 
13:25	81.6	81.6	81.1	40	54.9	4	12	248	0.00	29.943 
13:30	81.6	81.6	81.2	41	55.6	4	11	248	0.00	29.943 
13:35	82.2	82.2	81.5	39	54.7	3	9	248	0.00	29.943 
13:40	82.4	82.4	81.8	40	55.6	3	6	248	0.00	29.943 
13:45	82.4	82.4	81.9	41	56.3	3	8	248	0.00	29.942 
13:50	82.4	82.4	81.7	39	54.9	4	13	248	0.00	29.942 
13:55	82.6	82.6	82.1	41	56.5	4	10	270	0.00	29.942 
14:00	82.4	82.4	81.8	40	55.6	4	12	248	0.00	29.945 
14:05	82.4	82.4	81.9	41	56.3	4	10	270	0.00	29.945 
14:10	82.6	82.6	81.7	38	54.4	5	12	270	0.00	29.945 
14:15	82.8	82.8	82.2	40	56.0	4	14	270	0.00	29.944 
14:20	83.2	83.2	82.3	38	54.9	3	10	225	0.00	29.944 
14:25	83.0	83.0	82.0	37	54.0	4	9	248	0.00	29.944 
14:30	83.0	83.0	82.1	38	54.7	5	10	270	0.00	29.944 
14:35	83.2	83.2	82.3	38	54.9	4	11	248	0.00	29.944 
14:40	83.4	83.4	82.3	37	54.4	4	10	270	0.00	29.944 
14:45	83.4	83.4	82.4	38	55.1	4	10	248	0.00	29.945 
14:50	83.6	83.6	82.6	38	55.3	4	12	270	0.00	29.945 
14:55	83.8	83.8	82.7	37	54.7	4	9	270	0.00	29.945 
15:00	84.0	84.0	83.0	38	55.6	4	12	270	0.00	29.944 
15:05	84.0	84.0	82.8	37	54.9	4	10	270	0.00	29.944 
15:10	83.8	83.8	82.8	38	55.5	4	11	270	0.00	29.944 
15:15	83.8	83.8	82.5	36	54.0	4	11	270	0.00	29.939 
15:20	83.8	83.8	82.5	36	54.0	6	12	248	0.00	29.939 
15:25	83.8	83.8	82.5	36	54.0	4	12	248	0.00	29.939 
15:30	84.1	84.1	82.7	35	53.5	4	7	248	0.00	29.938 
15:35	84.0	84.0	82.6	35	53.4	5	12	270	0.00	29.938 
15:40	84.0	84.0	82.8	37	54.9	3	9	248	0.00	29.938 
15:45	84.5	84.5	83.2	36	54.6	2	9	248	0.00	29.934 
15:50	84.3	84.3	82.9	35	53.6	4	10	270	0.00	29.934 
15:55	84.1	84.1	82.8	36	54.2	4	10	248	0.00	29.934 
16:00	84.0	84.0	82.5	34	52.6	4	13	270	0.00	29.935 
16:05	84.0	84.0	82.8	37	54.9	5	12	248	0.00	29.935 
16:10	84.0	84.0	82.6	35	53.4	4	10	270	0.00	29.935 
16:15	84.0	84.0	82.6	35	53.4	4	16	248	0.00	29.935 
16:20	83.8	83.8	82.8	38	55.5	4	10	248	0.00	29.935 
16:25	83.6	83.6	82.8	39	56.0	4	11	270	0.00	29.935 
16:30	83.0	83.0	82.1	38	54.7	5	13	248	0.00	29.947 
16:35	82.6	82.6	81.8	39	55.1	5	12	248	0.00	29.947 
16:40	81.6	81.6	81.0	39	54.2	5	13	248	0.00	29.947 
16:45	80.9	80.9	80.6	40	54.3	5	14	270	0.00	29.954 
16:50	80.9	80.9	80.5	39	53.6	6	12	248	0.00	29.954 
16:55	80.3	80.3	80.0	38	52.4	6	15	248	0.00	29.954 
17:00	79.9	79.9	79.7	38	52.0	5	14	270	0.00	29.955 
17:05	79.8	79.8	79.6	37	51.2	6	12	270	0.00	29.955 
17:10	79.8	79.8	79.5	36	50.4	3	10	248	0.00	29.955 
17:15	79.4	79.4	79.3	37	50.8	4	13	248	0.00	29.957 
17:20	79.2	79.2	79.1	36	49.9	4	10	270	0.00	29.957 
17:25	79.2	79.2	79.1	35	49.2	3	9	248	0.00	29.957 
17:30	79.2	79.2	79.1	35	49.2	4	9	270	0.00	29.953 
17:35	79.4	79.4	79.2	35	49.3	3	9	248	0.00	29.953 
17:40	79.0	79.0	78.8	33	47.4	4	11	248	0.00	29.953 
17:45	78.5	78.5	78.6	33	47.0	2	7	248	0.00	29.956 
17:50	77.9	77.9	78.1	31	44.8	4	14	248	0.00	29.956 
17:55	77.9	77.9	78.1	30	43.9	4	12	248	0.00	29.956 
18:00	77.7	77.7	77.8	28	42.0	4	11	248	0.00	29.960 
18:05	77.4	77.4	77.7	28	41.7	4	10	270	0.00	29.960 
18:10	77.0	77.0	77.5	28	41.4	3	9	270	0.00	29.960 
18:15	76.7	76.7	77.5	29	42.0	3	9	248	0.00	29.958 
18:20	76.5	76.5	77.5	30	42.7	3	8	270	0.00	29.958 
18:25	76.1	76.1	77.3	30	42.4	2	9	248	0.00	29.958 
18:30	76.0	76.0	77.4	32	44.0	2	5	225	0.00	29.948 
18:35	76.0	76.0	77.3	31	43.2	2	7	225	0.00	29.948 
18:40	76.0	76.0	77.3	31	43.2	1	5	248	0.00	29.948 
18:45	76.1	76.1	77.4	32	44.1	1	5	248	0.00	29.957 
18:50	76.3	76.3	77.5	31	43.4	2	5	248	0.00	29.957 
18:55	76.5	76.5	77.5	31	43.6	1	7	270	0.00	29.957 
19:00	76.5	76.5	77.5	31	43.6	1	4	270	0.00	29.956 
19:05	76.7	76.7	77.6	31	43.8	1	6	248	0.00	29.956 
19:10	76.7	76.7	77.7	32	44.6	1	4	248	0.00	29.956 
19:15	76.5	76.5	77.5	31	43.6	1	5	248	0.00	29.952 
19:20	76.3	76.3	77.6	34	45.8	0	3	248	0.00	29.952 
19:25	76.1	76.1	77.4	32	44.1	1	5	248	0.00	29.952 
19:30	76.0	76.0	77.5	33	44.8	1	5	90	0.00	29.946 
19:35	75.8	75.8	77.5	35	46.2	1	3	90	0.00	29.946 
19:40	75.4	75.4	77.3	34	45.1	0	3	45	0.00	29.946 
19:45	75.3	75.3	77.4	35	45.7	0	4	90	0.00	29.951 
19:50	75.1	75.1	77.3	35	45.6	0	1	90	0.00	29.951 
19:55	74.7	74.7	74.7	37	46.7	0	1	90	0.00	29.951 
20:00	74.4	74.4	74.4	37	46.4	0	1	90	0.00	29.957 
20:05	74.0	74.0	74.0	37	46.1	0	1	90	0.00	29.957 
20:10	73.9	73.9	73.9	37	46.0	0	1	90	0.00	29.957 
20:15	73.7	73.7	73.7	38	46.5	0	1	90	0.00	29.954 
20:20	73.5	73.5	73.5	38	46.3	0	0	---	0.00	29.954 
20:25	73.2	73.2	73.2	39	46.7	0	1	90	0.00	29.954 
20:30	73.0	73.0	73.0	38	45.9	0	2	90	0.00	29.956 
20:35	72.8	72.8	72.8	39	46.4	0	1	90	0.00	29.956 
20:40	72.7	72.7	72.7	39	46.3	0	2	90	0.00	29.956 
20:45	72.3	72.3	72.3	40	46.6	0	0	---	0.00	29.958 
20:50	71.8	71.8	71.8	41	46.8	0	1	90	0.00	29.958 
20:55	71.3	71.3	71.3	42	47.0	0	2	90	0.00	29.958 
21:00	71.1	71.1	71.1	41	46.2	0	3	270	0.00	29.958 
21:05	71.1	71.1	71.1	41	46.2	0	1	270	0.00	29.958 
21:10	71.3	71.3	71.3	40	45.7	0	3	270	0.00	29.958 
21:15	71.5	71.5	71.5	39	45.2	0	2	270	0.00	29.953 
21:20	71.3	71.3	71.3	40	45.7	0	4	248	0.00	29.953 
21:25	70.9	70.9	70.9	40	45.4	0	1	248	0.00	29.953 
21:30	70.4	70.4	70.4	40	44.9	0	1	248	0.00	29.957 
21:35	70.3	70.3	70.3	41	45.5	0	1	248	0.00	29.957 
21:40	69.9	69.9	69.9	41	45.1	0	0	---	0.00	29.957 
21:45	69.6	69.6	69.6	41	44.8	0	1	248	0.00	29.959 
21:50	69.3	69.3	69.3	41	44.6	0	1	248	0.00	29.959 
21:55	68.9	68.9	68.9	41	44.2	0	1	248	0.00	29.959 
22:00	68.8	68.8	68.8	41	44.1	0	0	---	0.00	29.964 
22:05	68.4	68.4	68.4	41	43.8	0	1	248	0.00	29.964 
22:10	68.3	68.3	68.3	41	43.7	0	1	248	0.00	29.964 
22:15	68.3	68.3	68.3	41	43.7	0	2	248	0.00	29.957 
22:20	68.3	68.3	68.3	41	43.7	0	1	248	0.00	29.957 
22:25	68.3	68.3	68.3	41	43.7	0	1	248	0.00	29.957 
22:30	68.1	68.1	68.1	41	43.5	0	3	248	0.00	29.955 
22:35	68.3	68.3	68.3	40	43.0	0	2	248	0.00	29.955 
22:40	68.8	68.8	68.8	39	42.8	1	4	248	0.00	29.955 
22:45	69.4	69.4	69.4	38	42.7	1	4	248	0.00	29.957 
22:50	69.9	69.9	69.9	37	42.4	1	5	248	0.00	29.957 
22:55	70.1	70.1	70.1	37	42.6	1	6	270	0.00	29.957 
23:00	70.3	70.3	70.3	37	42.8	2	6	248	0.00	29.961 
23:05	70.3	70.3	70.3	37	42.8	1	5	248	0.00	29.961 
23:10	70.1	70.1	70.1	37	42.6	1	6	248	0.00	29.961 
23:15	70.1	70.1	70.1	37	42.6	2	5	270	0.00	29.961 
23:20	70.3	70.3	70.3	37	42.8	2	10	270	0.00	29.961 
23:25	70.6	70.6	70.6	36	42.3	2	7	248	0.00	29.961 
23:30	70.8	70.8	70.8	35	41.8	1	5	248	0.00	29.956 
23:35	71.1	71.1	71.1	35	42.0	2	6	248	0.00	29.956 
23:40	71.3	71.3	71.3	34	41.5	2	7	270	0.00	29.956 
23:45	71.3	71.3	71.3	35	42.2	1	4	270	0.00	29.959 
23:50	71.1	71.1	71.1	35	42.0	1	5	270	0.00	29.959 
23:55	70.9	70.9	70.9	35	41.9	2	6	270	0.00	29.959 

CoCoRaHS
IN-AL-39
A2 Web Hosting
Creative Commons License
GoDaddy
search engine by freefind advanced

loaded 2018-11-12 19:37:18 • last modified 2010-11-18 10:43:29
Privacy PolicyDisclaimer
• wx.awcolley.com is powered by PmWiki v.2002016 •
• all content (unless otherwise noted) © 2018 A W Colley